sensor_id;sensor_type;location;lat;lon;timestamp;P1;durP1;ratioP1;P2;durP2;ratioP2
20042;SDS011;10182;52.896;6.496;2023-02-10T00:02:49;50.87;;;28.97;;
20042;SDS011;10182;52.896;6.496;2023-02-10T00:07:51;44.87;;;25.43;;
20042;SDS011;10182;52.896;6.496;2023-02-10T00:12:54;46.17;;;26.30;;
20042;SDS011;10182;52.896;6.496;2023-02-10T00:17:55;45.63;;;25.03;;
20042;SDS011;10182;52.896;6.496;2023-02-10T00:22:57;47.27;;;26.47;;
20042;SDS011;10182;52.896;6.496;2023-02-10T00:28:00;45.80;;;25.70;;
20042;SDS011;10182;52.896;6.496;2023-02-10T00:33:02;45.13;;;25.07;;
20042;SDS011;10182;52.896;6.496;2023-02-10T00:38:04;47.97;;;25.60;;
20042;SDS011;10182;52.896;6.496;2023-02-10T00:43:07;42.47;;;25.60;;
20042;SDS011;10182;52.896;6.496;2023-02-10T00:48:23;48.20;;;24.80;;
20042;SDS011;10182;52.896;6.496;2023-02-10T00:53:25;48.07;;;22.97;;
20042;SDS011;10182;52.896;6.496;2023-02-10T00:58:27;39.50;;;21.70;;
20042;SDS011;10182;52.896;6.496;2023-02-10T01:03:30;39.03;;;22.03;;
20042;SDS011;10182;52.896;6.496;2023-02-10T01:08:32;43.40;;;22.03;;
20042;SDS011;10182;52.896;6.496;2023-02-10T01:13:35;32.43;;;19.53;;
20042;SDS011;10182;52.896;6.496;2023-02-10T01:18:38;40.77;;;21.10;;
20042;SDS011;10182;52.896;6.496;2023-02-10T01:23:41;41.27;;;21.80;;
20042;SDS011;10182;52.896;6.496;2023-02-10T01:28:43;45.40;;;22.90;;
20042;SDS011;10182;52.896;6.496;2023-02-10T01:33:46;49.07;;;22.77;;
20042;SDS011;10182;52.896;6.496;2023-02-10T01:38:52;45.17;;;23.17;;
20042;SDS011;10182;52.896;6.496;2023-02-10T01:43:59;49.83;;;24.33;;
20042;SDS011;10182;52.896;6.496;2023-02-10T01:49:04;45.97;;;24.13;;
20042;SDS011;10182;52.896;6.496;2023-02-10T01:54:10;39.43;;;24.10;;
20042;SDS011;10182;52.896;6.496;2023-02-10T01:59:15;44.17;;;23.57;;
20042;SDS011;10182;52.896;6.496;2023-02-10T02:04:20;41.90;;;23.87;;
20042;SDS011;10182;52.896;6.496;2023-02-10T02:09:22;42.37;;;23.10;;
20042;SDS011;10182;52.896;6.496;2023-02-10T02:14:26;40.63;;;23.93;;
20042;SDS011;10182;52.896;6.496;2023-02-10T02:25:47;48.13;;;24.47;;
20042;SDS011;10182;52.896;6.496;2023-02-10T02:36:33;35.73;;;23.90;;
20042;SDS011;10182;52.896;6.496;2023-02-10T02:41:38;33.73;;;22.60;;
20042;SDS011;10182;52.896;6.496;2023-02-10T02:46:45;46.83;;;23.00;;
20042;SDS011;10182;52.896;6.496;2023-02-10T02:51:54;45.23;;;22.13;;
20042;SDS011;10182;52.896;6.496;2023-02-10T02:57:04;47.90;;;22.67;;
20042;SDS011;10182;52.896;6.496;2023-02-10T03:02:12;34.53;;;21.77;;
20042;SDS011;10182;52.896;6.496;2023-02-10T03:07:16;53.80;;;23.17;;
20042;SDS011;10182;52.896;6.496;2023-02-10T03:12:18;42.27;;;21.00;;
20042;SDS011;10182;52.896;6.496;2023-02-10T03:17:21;33.97;;;22.17;;
20042;SDS011;10182;52.896;6.496;2023-02-10T03:22:23;38.53;;;22.57;;
20042;SDS011;10182;52.896;6.496;2023-02-10T03:27:24;39.57;;;21.77;;
20042;SDS011;10182;52.896;6.496;2023-02-10T03:32:27;41.27;;;21.73;;
20042;SDS011;10182;52.896;6.496;2023-02-10T03:37:29;41.07;;;22.53;;
20042;SDS011;10182;52.896;6.496;2023-02-10T03:42:31;40.33;;;23.10;;
20042;SDS011;10182;52.896;6.496;2023-02-10T03:47:34;45.97;;;24.13;;
20042;SDS011;10182;52.896;6.496;2023-02-10T03:52:36;40.40;;;21.37;;
20042;SDS011;10182;52.896;6.496;2023-02-10T03:57:37;39.20;;;22.47;;
20042;SDS011;10182;52.896;6.496;2023-02-10T04:02:40;36.93;;;23.13;;
20042;SDS011;10182;52.896;6.496;2023-02-10T04:07:42;43.50;;;24.63;;
20042;SDS011;10182;52.896;6.496;2023-02-10T04:12:44;44.37;;;23.40;;
20042;SDS011;10182;52.896;6.496;2023-02-10T04:17:47;40.60;;;22.53;;
20042;SDS011;10182;52.896;6.496;2023-02-10T04:22:49;39.57;;;23.80;;
20042;SDS011;10182;52.896;6.496;2023-02-10T04:27:50;41.27;;;24.07;;
20042;SDS011;10182;52.896;6.496;2023-02-10T04:32:53;46.67;;;23.03;;
20042;SDS011;10182;52.896;6.496;2023-02-10T04:37:55;43.97;;;22.93;;
20042;SDS011;10182;52.896;6.496;2023-02-10T04:42:58;37.00;;;22.67;;
20042;SDS011;10182;52.896;6.496;2023-02-10T04:48:02;36.23;;;22.63;;
20042;SDS011;10182;52.896;6.496;2023-02-10T04:53:03;34.03;;;20.40;;
20042;SDS011;10182;52.896;6.496;2023-02-10T04:58:06;36.03;;;21.73;;
20042;SDS011;10182;52.896;6.496;2023-02-10T05:03:09;40.93;;;21.57;;
20042;SDS011;10182;52.896;6.496;2023-02-10T05:08:11;44.50;;;22.87;;
20042;SDS011;10182;52.896;6.496;2023-02-10T05:13:12;36.67;;;21.10;;
20042;SDS011;10182;52.896;6.496;2023-02-10T05:18:15;40.10;;;20.60;;
20042;SDS011;10182;52.896;6.496;2023-02-10T05:23:17;35.83;;;21.50;;
20042;SDS011;10182;52.896;6.496;2023-02-10T05:28:19;33.43;;;19.63;;
20042;SDS011;10182;52.896;6.496;2023-02-10T05:33:22;31.73;;;18.77;;
20042;SDS011;10182;52.896;6.496;2023-02-10T05:38:25;32.63;;;19.60;;
20042;SDS011;10182;52.896;6.496;2023-02-10T05:43:27;33.83;;;18.83;;
20042;SDS011;10182;52.896;6.496;2023-02-10T05:48:30;37.30;;;19.90;;
20042;SDS011;10182;52.896;6.496;2023-02-10T05:53:32;36.37;;;18.60;;
20042;SDS011;10182;52.896;6.496;2023-02-10T05:58:33;32.80;;;18.87;;
20042;SDS011;10182;52.896;6.496;2023-02-10T06:03:37;28.40;;;19.17;;
20042;SDS011;10182;52.896;6.496;2023-02-10T06:08:38;34.00;;;18.23;;
20042;SDS011;10182;52.896;6.496;2023-02-10T06:13:40;36.40;;;20.80;;
20042;SDS011;10182;52.896;6.496;2023-02-10T06:18:43;34.63;;;20.97;;
20042;SDS011;10182;52.896;6.496;2023-02-10T06:23:47;33.87;;;19.37;;
20042;SDS011;10182;52.896;6.496;2023-02-10T06:28:49;32.53;;;19.80;;
20042;SDS011;10182;52.896;6.496;2023-02-10T06:33:52;30.47;;;20.33;;
20042;SDS011;10182;52.896;6.496;2023-02-10T06:38:54;35.37;;;21.87;;
20042;SDS011;10182;52.896;6.496;2023-02-10T06:43:56;36.80;;;21.53;;
20042;SDS011;10182;52.896;6.496;2023-02-10T06:48:59;37.43;;;23.17;;
20042;SDS011;10182;52.896;6.496;2023-02-10T06:54:01;36.60;;;22.27;;
20042;SDS011;10182;52.896;6.496;2023-02-10T06:59:03;35.20;;;21.73;;
20042;SDS011;10182;52.896;6.496;2023-02-10T07:04:06;38.33;;;23.53;;
20042;SDS011;10182;52.896;6.496;2023-02-10T07:09:08;35.57;;;23.60;;
20042;SDS011;10182;52.896;6.496;2023-02-10T07:14:10;39.73;;;24.53;;
20042;SDS011;10182;52.896;6.496;2023-02-10T07:19:13;34.67;;;23.40;;
20042;SDS011;10182;52.896;6.496;2023-02-10T07:24:14;40.80;;;25.80;;
20042;SDS011;10182;52.896;6.496;2023-02-10T07:29:16;49.80;;;26.70;;
20042;SDS011;10182;52.896;6.496;2023-02-10T07:34:19;41.93;;;25.87;;
20042;SDS011;10182;52.896;6.496;2023-02-10T07:39:21;45.97;;;26.73;;
20042;SDS011;10182;52.896;6.496;2023-02-10T07:44:23;40.07;;;26.33;;
20042;SDS011;10182;52.896;6.496;2023-02-10T07:49:26;34.07;;;23.00;;
20042;SDS011;10182;52.896;6.496;2023-02-10T07:54:28;41.13;;;24.93;;
20042;SDS011;10182;52.896;6.496;2023-02-10T07:59:30;39.67;;;25.17;;
20042;SDS011;10182;52.896;6.496;2023-02-10T08:04:33;39.60;;;27.37;;
20042;SDS011;10182;52.896;6.496;2023-02-10T08:09:35;47.47;;;26.33;;
20042;SDS011;10182;52.896;6.496;2023-02-10T08:14:39;37.00;;;24.77;;
20042;SDS011;10182;52.896;6.496;2023-02-10T08:19:45;40.47;;;24.73;;
20042;SDS011;10182;52.896;6.496;2023-02-10T08:24:46;36.40;;;25.57;;
20042;SDS011;10182;52.896;6.496;2023-02-10T08:29:48;39.43;;;24.87;;
20042;SDS011;10182;52.896;6.496;2023-02-10T08:34:51;37.63;;;24.40;;
20042;SDS011;10182;52.896;6.496;2023-02-10T08:39:53;41.63;;;23.80;;
20042;SDS011;10182;52.896;6.496;2023-02-10T08:44:55;33.13;;;23.07;;
20042;SDS011;10182;52.896;6.496;2023-02-10T08:49:58;37.27;;;24.77;;
20042;SDS011;10182;52.896;6.496;2023-02-10T08:55:00;42.07;;;26.17;;
20042;SDS011;10182;52.896;6.496;2023-02-10T09:00:03;40.60;;;25.40;;
20042;SDS011;10182;52.896;6.496;2023-02-10T09:05:09;45.03;;;25.60;;
20042;SDS011;10182;52.896;6.496;2023-02-10T09:10:10;36.20;;;24.07;;
20042;SDS011;10182;52.896;6.496;2023-02-10T09:15:13;37.13;;;24.63;;
20042;SDS011;10182;52.896;6.496;2023-02-10T09:20:16;40.80;;;24.57;;
20042;SDS011;10182;52.896;6.496;2023-02-10T09:25:18;45.63;;;25.70;;
20042;SDS011;10182;52.896;6.496;2023-02-10T09:30:19;35.67;;;23.73;;
20042;SDS011;10182;52.896;6.496;2023-02-10T09:35:23;44.03;;;24.30;;
20042;SDS011;10182;52.896;6.496;2023-02-10T09:40:25;45.47;;;25.03;;
20042;SDS011;10182;52.896;6.496;2023-02-10T09:45:33;45.13;;;24.20;;
20042;SDS011;10182;52.896;6.496;2023-02-10T09:50:44;41.50;;;24.93;;
20042;SDS011;10182;52.896;6.496;2023-02-10T09:55:52;43.23;;;24.37;;
20042;SDS011;10182;52.896;6.496;2023-02-10T10:00:58;43.70;;;24.97;;
20042;SDS011;10182;52.896;6.496;2023-02-10T10:06:09;43.23;;;27.10;;
20042;SDS011;10182;52.896;6.496;2023-02-10T10:11:21;40.53;;;27.63;;
20042;SDS011;10182;52.896;6.496;2023-02-10T10:16:33;48.20;;;27.30;;
20042;SDS011;10182;52.896;6.496;2023-02-10T10:21:50;40.00;;;26.70;;
20042;SDS011;10182;52.896;6.496;2023-02-10T10:27:00;50.90;;;25.57;;
20042;SDS011;10182;52.896;6.496;2023-02-10T10:32:14;44.17;;;25.23;;
20042;SDS011;10182;52.896;6.496;2023-02-10T10:37:19;48.30;;;25.90;;
20042;SDS011;10182;52.896;6.496;2023-02-10T10:42:25;38.03;;;23.17;;
20042;SDS011;10182;52.896;6.496;2023-02-10T10:47:38;36.30;;;21.93;;
20042;SDS011;10182;52.896;6.496;2023-02-10T10:52:46;37.80;;;21.93;;
20042;SDS011;10182;52.896;6.496;2023-02-10T10:57:52;34.33;;;22.00;;
20042;SDS011;10182;52.896;6.496;2023-02-10T11:02:57;39.60;;;21.03;;
20042;SDS011;10182;52.896;6.496;2023-02-10T11:08:02;32.43;;;17.57;;
20042;SDS011;10182;52.896;6.496;2023-02-10T11:13:05;31.17;;;18.07;;
20042;SDS011;10182;52.896;6.496;2023-02-10T11:18:19;38.20;;;17.13;;
20042;SDS011;10182;52.896;6.496;2023-02-10T11:23:25;32.83;;;16.67;;
20042;SDS011;10182;52.896;6.496;2023-02-10T11:28:28;34.70;;;16.30;;
20042;SDS011;10182;52.896;6.496;2023-02-10T11:33:32;23.40;;;14.57;;
20042;SDS011;10182;52.896;6.496;2023-02-10T11:38:44;30.87;;;16.17;;
20042;SDS011;10182;52.896;6.496;2023-02-10T11:43:46;30.03;;;13.70;;
20042;SDS011;10182;52.896;6.496;2023-02-10T11:48:52;19.77;;;11.57;;
20042;SDS011;10182;52.896;6.496;2023-02-10T11:53:56;24.43;;;12.00;;
20042;SDS011;10182;52.896;6.496;2023-02-10T11:59:01;21.27;;;12.00;;
20042;SDS011;10182;52.896;6.496;2023-02-10T12:04:13;23.80;;;12.83;;
20042;SDS011;10182;52.896;6.496;2023-02-10T12:09:37;21.63;;;11.90;;
20042;SDS011;10182;52.896;6.496;2023-02-10T12:14:49;24.37;;;12.17;;
20042;SDS011;10182;52.896;6.496;2023-02-10T12:20:05;22.27;;;12.53;;
20042;SDS011;10182;52.896;6.496;2023-02-10T12:25:22;18.17;;;10.83;;
20042;SDS011;10182;52.896;6.496;2023-02-10T12:30:34;21.37;;;9.47;;
20042;SDS011;10182;52.896;6.496;2023-02-10T12:35:46;16.40;;;9.30;;
20042;SDS011;10182;52.896;6.496;2023-02-10T12:40:57;20.13;;;8.73;;
20042;SDS011;10182;52.896;6.496;2023-02-10T12:46:11;17.17;;;8.37;;
20042;SDS011;10182;52.896;6.496;2023-02-10T12:51:26;12.10;;;7.33;;
20042;SDS011;10182;52.896;6.496;2023-02-10T12:56:39;11.03;;;5.67;;
20042;SDS011;10182;52.896;6.496;2023-02-10T13:01:45;16.13;;;7.70;;
20042;SDS011;10182;52.896;6.496;2023-02-10T13:06:51;18.13;;;6.67;;
20042;SDS011;10182;52.896;6.496;2023-02-10T13:12:04;13.57;;;6.23;;
20042;SDS011;10182;52.896;6.496;2023-02-10T13:17:12;20.60;;;7.43;;
20042;SDS011;10182;52.896;6.496;2023-02-10T13:22:15;12.07;;;5.83;;
20042;SDS011;10182;52.896;6.496;2023-02-10T13:27:26;18.17;;;6.50;;
20042;SDS011;10182;52.896;6.496;2023-02-10T13:32:43;18.00;;;7.53;;
20042;SDS011;10182;52.896;6.496;2023-02-10T13:37:52;14.00;;;5.80;;
20042;SDS011;10182;52.896;6.496;2023-02-10T13:43:00;17.63;;;7.50;;
20042;SDS011;10182;52.896;6.496;2023-02-10T13:48:04;16.13;;;7.37;;
20042;SDS011;10182;52.896;6.496;2023-02-10T13:58:33;20.60;;;8.40;;
20042;SDS011;10182;52.896;6.496;2023-02-10T14:03:35;15.40;;;7.50;;
20042;SDS011;10182;52.896;6.496;2023-02-10T14:08:38;11.17;;;6.67;;
20042;SDS011;10182;52.896;6.496;2023-02-10T14:13:43;17.53;;;7.93;;
20042;SDS011;10182;52.896;6.496;2023-02-10T14:18:58;18.50;;;9.17;;
20042;SDS011;10182;52.896;6.496;2023-02-10T14:24:03;16.07;;;8.73;;
20042;SDS011;10182;52.896;6.496;2023-02-10T14:29:15;20.73;;;9.23;;
20042;SDS011;10182;52.896;6.496;2023-02-10T14:34:21;16.17;;;9.80;;
20042;SDS011;10182;52.896;6.496;2023-02-10T14:39:27;19.20;;;9.43;;
20042;SDS011;10182;52.896;6.496;2023-02-10T14:44:33;18.83;;;9.23;;
20042;SDS011;10182;52.896;6.496;2023-02-10T14:49:38;20.73;;;8.90;;
20042;SDS011;10182;52.896;6.496;2023-02-10T14:54:40;22.73;;;8.37;;
20042;SDS011;10182;52.896;6.496;2023-02-10T14:59:43;16.47;;;7.17;;
20042;SDS011;10182;52.896;6.496;2023-02-10T15:04:53;13.83;;;7.90;;
20042;SDS011;10182;52.896;6.496;2023-02-10T15:09:57;14.83;;;8.90;;
20042;SDS011;10182;52.896;6.496;2023-02-10T15:15:05;17.93;;;8.07;;
20042;SDS011;10182;52.896;6.496;2023-02-10T15:20:23;12.33;;;6.83;;
20042;SDS011;10182;52.896;6.496;2023-02-10T15:25:31;14.13;;;6.97;;
20042;SDS011;10182;52.896;6.496;2023-02-10T15:30:42;16.80;;;7.03;;
20042;SDS011;10182;52.896;6.496;2023-02-10T15:35:52;17.77;;;8.17;;
20042;SDS011;10182;52.896;6.496;2023-02-10T15:40:56;13.93;;;6.60;;
20042;SDS011;10182;52.896;6.496;2023-02-10T15:46:14;13.87;;;7.23;;
20042;SDS011;10182;52.896;6.496;2023-02-10T15:51:19;15.37;;;7.07;;
20042;SDS011;10182;52.896;6.496;2023-02-10T15:56:24;15.40;;;7.83;;
20042;SDS011;10182;52.896;6.496;2023-02-10T16:01:28;20.23;;;8.37;;
20042;SDS011;10182;52.896;6.496;2023-02-10T16:06:29;15.13;;;8.20;;
20042;SDS011;10182;52.896;6.496;2023-02-10T16:11:31;14.00;;;8.57;;
20042;SDS011;10182;52.896;6.496;2023-02-10T16:16:34;20.57;;;9.20;;
20042;SDS011;10182;52.896;6.496;2023-02-10T16:21:40;17.40;;;8.20;;
20042;SDS011;10182;52.896;6.496;2023-02-10T16:26:42;24.57;;;9.83;;
20042;SDS011;10182;52.896;6.496;2023-02-10T16:31:46;19.27;;;11.00;;
20042;SDS011;10182;52.896;6.496;2023-02-10T16:36:48;19.60;;;11.53;;
20042;SDS011;10182;52.896;6.496;2023-02-10T16:41:50;19.27;;;11.87;;
20042;SDS011;10182;52.896;6.496;2023-02-10T16:46:54;24.97;;;14.40;;
20042;SDS011;10182;52.896;6.496;2023-02-10T16:51:57;27.97;;;15.20;;
20042;SDS011;10182;52.896;6.496;2023-02-10T16:56:58;29.03;;;16.57;;
20042;SDS011;10182;52.896;6.496;2023-02-10T17:02:01;23.40;;;15.63;;
20042;SDS011;10182;52.896;6.496;2023-02-10T17:07:03;27.17;;;14.40;;
20042;SDS011;10182;52.896;6.496;2023-02-10T17:12:05;31.73;;;14.53;;
20042;SDS011;10182;52.896;6.496;2023-02-10T17:17:09;27.37;;;17.23;;
20042;SDS011;10182;52.896;6.496;2023-02-10T17:22:11;30.63;;;16.07;;
20042;SDS011;10182;52.896;6.496;2023-02-10T17:27:13;36.77;;;19.17;;
20042;SDS011;10182;52.896;6.496;2023-02-10T17:32:16;30.63;;;20.03;;
20042;SDS011;10182;52.896;6.496;2023-02-10T17:37:17;32.67;;;21.80;;
20042;SDS011;10182;52.896;6.496;2023-02-10T17:42:19;34.23;;;23.60;;
20042;SDS011;10182;52.896;6.496;2023-02-10T17:47:22;37.00;;;22.23;;
20042;SDS011;10182;52.896;6.496;2023-02-10T17:52:24;41.40;;;24.53;;
20042;SDS011;10182;52.896;6.496;2023-02-10T17:57:26;38.60;;;25.07;;
20042;SDS011;10182;52.896;6.496;2023-02-10T18:02:29;43.03;;;24.80;;
20042;SDS011;10182;52.896;6.496;2023-02-10T18:07:30;38.50;;;26.97;;
20042;SDS011;10182;52.896;6.496;2023-02-10T18:12:32;42.50;;;26.67;;
20042;SDS011;10182;52.896;6.496;2023-02-10T18:17:35;42.63;;;28.87;;
20042;SDS011;10182;52.896;6.496;2023-02-10T18:22:37;44.83;;;28.17;;
20042;SDS011;10182;52.896;6.496;2023-02-10T18:27:39;40.70;;;28.63;;
20042;SDS011;10182;52.896;6.496;2023-02-10T18:32:42;44.87;;;28.30;;
20042;SDS011;10182;52.896;6.496;2023-02-10T18:37:44;43.93;;;29.03;;
20042;SDS011;10182;52.896;6.496;2023-02-10T18:42:46;43.80;;;29.90;;
20042;SDS011;10182;52.896;6.496;2023-02-10T18:47:49;46.80;;;31.03;;
20042;SDS011;10182;52.896;6.496;2023-02-10T18:52:51;45.60;;;32.37;;
20042;SDS011;10182;52.896;6.496;2023-02-10T18:57:52;46.60;;;32.03;;
20042;SDS011;10182;52.896;6.496;2023-02-10T19:02:55;45.20;;;32.83;;
20042;SDS011;10182;52.896;6.496;2023-02-10T19:07:57;43.17;;;30.37;;
20042;SDS011;10182;52.896;6.496;2023-02-10T19:12:59;48.80;;;32.80;;
20042;SDS011;10182;52.896;6.496;2023-02-10T19:18:02;45.83;;;31.23;;
20042;SDS011;10182;52.896;6.496;2023-02-10T19:23:04;46.47;;;30.30;;
20042;SDS011;10182;52.896;6.496;2023-02-10T19:28:06;43.33;;;31.53;;
20042;SDS011;10182;52.896;6.496;2023-02-10T19:33:09;47.80;;;30.90;;
20042;SDS011;10182;52.896;6.496;2023-02-10T19:38:11;43.10;;;29.20;;
20042;SDS011;10182;52.896;6.496;2023-02-10T19:43:13;43.53;;;29.30;;
20042;SDS011;10182;52.896;6.496;2023-02-10T19:48:16;44.00;;;27.17;;
20042;SDS011;10182;52.896;6.496;2023-02-10T19:53:17;39.87;;;27.00;;
20042;SDS011;10182;52.896;6.496;2023-02-10T19:58:19;39.40;;;25.90;;
20042;SDS011;10182;52.896;6.496;2023-02-10T20:03:22;42.33;;;25.53;;
20042;SDS011;10182;52.896;6.496;2023-02-10T20:08:24;44.90;;;24.10;;
20042;SDS011;10182;52.896;6.496;2023-02-10T20:13:26;36.63;;;24.27;;
20042;SDS011;10182;52.896;6.496;2023-02-10T20:18:31;39.47;;;24.70;;
20042;SDS011;10182;52.896;6.496;2023-02-10T20:23:34;36.70;;;23.20;;
20042;SDS011;10182;52.896;6.496;2023-02-10T20:28:36;36.07;;;22.93;;
20042;SDS011;10182;52.896;6.496;2023-02-10T20:33:40;34.50;;;23.07;;
20042;SDS011;10182;52.896;6.496;2023-02-10T20:38:42;37.77;;;23.33;;
20042;SDS011;10182;52.896;6.496;2023-02-10T20:43:47;30.97;;;20.90;;
20042;SDS011;10182;52.896;6.496;2023-02-10T20:48:51;33.43;;;21.77;;
20042;SDS011;10182;52.896;6.496;2023-02-10T20:53:53;34.77;;;20.77;;
20042;SDS011;10182;52.896;6.496;2023-02-10T20:58:59;33.60;;;21.43;;
20042;SDS011;10182;52.896;6.496;2023-02-10T21:04:03;35.97;;;20.13;;
20042;SDS011;10182;52.896;6.496;2023-02-10T21:09:05;32.03;;;20.40;;
20042;SDS011;10182;52.896;6.496;2023-02-10T21:14:06;30.90;;;19.57;;
20042;SDS011;10182;52.896;6.496;2023-02-10T21:19:09;33.27;;;20.93;;
20042;SDS011;10182;52.896;6.496;2023-02-10T21:24:11;35.67;;;21.50;;
20042;SDS011;10182;52.896;6.496;2023-02-10T21:29:14;40.57;;;21.90;;
20042;SDS011;10182;52.896;6.496;2023-02-10T21:34:18;32.97;;;20.17;;
20042;SDS011;10182;52.896;6.496;2023-02-10T21:39:20;34.43;;;20.17;;
20042;SDS011;10182;52.896;6.496;2023-02-10T21:44:23;34.00;;;19.27;;
20042;SDS011;10182;52.896;6.496;2023-02-10T21:49:28;29.47;;;18.60;;
20042;SDS011;10182;52.896;6.496;2023-02-10T21:54:35;28.93;;;19.00;;
20042;SDS011;10182;52.896;6.496;2023-02-10T21:59:37;35.83;;;18.70;;
20042;SDS011;10182;52.896;6.496;2023-02-10T22:04:40;32.13;;;17.77;;
20042;SDS011;10182;52.896;6.496;2023-02-10T22:09:42;25.57;;;15.87;;
20042;SDS011;10182;52.896;6.496;2023-02-10T22:14:44;30.77;;;16.33;;
20042;SDS011;10182;52.896;6.496;2023-02-10T22:19:47;27.17;;;16.50;;
20042;SDS011;10182;52.896;6.496;2023-02-10T22:24:48;28.57;;;15.80;;
20042;SDS011;10182;52.896;6.496;2023-02-10T22:29:50;25.07;;;15.33;;
20042;SDS011;10182;52.896;6.496;2023-02-10T22:34:53;31.17;;;14.83;;
20042;SDS011;10182;52.896;6.496;2023-02-10T22:39:55;26.93;;;14.93;;
20042;SDS011;10182;52.896;6.496;2023-02-10T22:44:57;25.53;;;13.53;;
20042;SDS011;10182;52.896;6.496;2023-02-10T22:50:00;26.87;;;13.47;;
20042;SDS011;10182;52.896;6.496;2023-02-10T22:55:03;27.77;;;12.50;;
20042;SDS011;10182;52.896;6.496;2023-02-10T23:00:06;20.13;;;11.00;;
20042;SDS011;10182;52.896;6.496;2023-02-10T23:05:11;24.37;;;10.97;;
20042;SDS011;10182;52.896;6.496;2023-02-10T23:10:13;22.33;;;9.87;;
20042;SDS011;10182;52.896;6.496;2023-02-10T23:15:14;28.20;;;8.67;;
20042;SDS011;10182;52.896;6.496;2023-02-10T23:20:17;19.40;;;8.67;;
20042;SDS011;10182;52.896;6.496;2023-02-10T23:25:19;24.93;;;9.23;;
20042;SDS011;10182;52.896;6.496;2023-02-10T23:30:21;28.10;;;9.97;;
20042;SDS011;10182;52.896;6.496;2023-02-10T23:35:24;28.10;;;9.20;;
20042;SDS011;10182;52.896;6.496;2023-02-10T23:40:26;27.10;;;10.20;;
20042;SDS011;10182;52.896;6.496;2023-02-10T23:45:27;27.17;;;9.50;;
20042;SDS011;10182;52.896;6.496;2023-02-10T23:50:31;29.70;;;9.90;;
20042;SDS011;10182;52.896;6.496;2023-02-10T23:55:32;23.73;;;9.70;;
